sensor_id;sensor_type;location;lat;lon;timestamp;P1;durP1;ratioP1;P2;durP2;ratioP2
15116;SDS011;7659;51.038;13.786;2024-03-07T00:01:32;57.92;;;31.40;;
15116;SDS011;7659;51.038;13.786;2024-03-07T00:03:58;64.65;;;33.40;;
15116;SDS011;7659;51.038;13.786;2024-03-07T00:06:23;66.50;;;33.15;;
15116;SDS011;7659;51.038;13.786;2024-03-07T00:08:48;61.83;;;32.35;;
15116;SDS011;7659;51.038;13.786;2024-03-07T00:11:14;59.95;;;33.33;;
15116;SDS011;7659;51.038;13.786;2024-03-07T00:13:39;64.55;;;33.75;;
15116;SDS011;7659;51.038;13.786;2024-03-07T00:16:05;53.45;;;32.15;;
15116;SDS011;7659;51.038;13.786;2024-03-07T00:18:30;65.03;;;34.85;;
15116;SDS011;7659;51.038;13.786;2024-03-07T00:20:55;57.95;;;32.25;;
15116;SDS011;7659;51.038;13.786;2024-03-07T00:23:21;59.85;;;31.27;;
15116;SDS011;7659;51.038;13.786;2024-03-07T00:25:46;62.17;;;34.92;;
15116;SDS011;7659;51.038;13.786;2024-03-07T00:28:15;59.65;;;35.03;;
15116;SDS011;7659;51.038;13.786;2024-03-07T00:30:45;58.42;;;32.58;;
15116;SDS011;7659;51.038;13.786;2024-03-07T00:33:13;67.60;;;35.08;;
15116;SDS011;7659;51.038;13.786;2024-03-07T00:35:39;59.97;;;33.97;;
15116;SDS011;7659;51.038;13.786;2024-03-07T00:38:04;64.00;;;35.45;;
15116;SDS011;7659;51.038;13.786;2024-03-07T00:40:30;64.68;;;35.38;;
15116;SDS011;7659;51.038;13.786;2024-03-07T00:42:56;68.45;;;36.35;;
15116;SDS011;7659;51.038;13.786;2024-03-07T00:45:22;65.82;;;36.70;;
15116;SDS011;7659;51.038;13.786;2024-03-07T00:47:48;64.97;;;34.85;;
15116;SDS011;7659;51.038;13.786;2024-03-07T00:50:13;68.50;;;35.75;;
15116;SDS011;7659;51.038;13.786;2024-03-07T00:52:39;64.18;;;36.95;;
15116;SDS011;7659;51.038;13.786;2024-03-07T00:55:05;63.05;;;35.70;;
15116;SDS011;7659;51.038;13.786;2024-03-07T00:57:33;62.40;;;36.08;;
15116;SDS011;7659;51.038;13.786;2024-03-07T00:59:59;60.97;;;35.80;;
15116;SDS011;7659;51.038;13.786;2024-03-07T01:02:25;69.10;;;36.03;;
15116;SDS011;7659;51.038;13.786;2024-03-07T01:04:50;69.57;;;35.90;;
15116;SDS011;7659;51.038;13.786;2024-03-07T01:07:16;67.40;;;36.55;;
15116;SDS011;7659;51.038;13.786;2024-03-07T01:09:41;60.30;;;33.25;;
15116;SDS011;7659;51.038;13.786;2024-03-07T01:12:07;62.42;;;34.03;;
15116;SDS011;7659;51.038;13.786;2024-03-07T01:14:35;60.63;;;34.03;;
15116;SDS011;7659;51.038;13.786;2024-03-07T01:17:00;66.25;;;34.10;;
15116;SDS011;7659;51.038;13.786;2024-03-07T01:19:26;61.20;;;34.90;;
15116;SDS011;7659;51.038;13.786;2024-03-07T01:21:51;64.50;;;34.72;;
15116;SDS011;7659;51.038;13.786;2024-03-07T01:24:17;61.60;;;34.60;;
15116;SDS011;7659;51.038;13.786;2024-03-07T01:26:43;57.50;;;33.40;;
15116;SDS011;7659;51.038;13.786;2024-03-07T01:29:09;69.47;;;37.08;;
15116;SDS011;7659;51.038;13.786;2024-03-07T01:31:34;59.80;;;34.17;;
15116;SDS011;7659;51.038;13.786;2024-03-07T01:33:59;63.45;;;34.65;;
15116;SDS011;7659;51.038;13.786;2024-03-07T01:36:25;59.00;;;34.70;;
15116;SDS011;7659;51.038;13.786;2024-03-07T01:38:50;60.97;;;33.80;;
15116;SDS011;7659;51.038;13.786;2024-03-07T01:41:16;54.03;;;32.38;;
15116;SDS011;7659;51.038;13.786;2024-03-07T01:43:42;54.60;;;32.30;;
15116;SDS011;7659;51.038;13.786;2024-03-07T01:46:07;57.25;;;33.35;;
15116;SDS011;7659;51.038;13.786;2024-03-07T01:48:33;60.95;;;33.13;;
15116;SDS011;7659;51.038;13.786;2024-03-07T01:50:59;58.53;;;32.88;;
15116;SDS011;7659;51.038;13.786;2024-03-07T01:53:27;55.67;;;32.17;;
15116;SDS011;7659;51.038;13.786;2024-03-07T01:55:53;55.65;;;32.30;;
15116;SDS011;7659;51.038;13.786;2024-03-07T01:58:22;54.00;;;33.92;;
15116;SDS011;7659;51.038;13.786;2024-03-07T02:00:48;65.25;;;34.95;;
15116;SDS011;7659;51.038;13.786;2024-03-07T02:03:14;57.20;;;32.47;;
15116;SDS011;7659;51.038;13.786;2024-03-07T02:05:40;54.72;;;32.13;;
15116;SDS011;7659;51.038;13.786;2024-03-07T02:08:05;54.22;;;32.83;;
15116;SDS011;7659;51.038;13.786;2024-03-07T02:10:31;61.10;;;33.72;;
15116;SDS011;7659;51.038;13.786;2024-03-07T02:12:56;53.90;;;31.65;;
15116;SDS011;7659;51.038;13.786;2024-03-07T02:15:22;56.63;;;34.00;;
15116;SDS011;7659;51.038;13.786;2024-03-07T02:17:47;63.92;;;33.65;;
15116;SDS011;7659;51.038;13.786;2024-03-07T02:20:13;59.47;;;34.28;;
15116;SDS011;7659;51.038;13.786;2024-03-07T02:22:38;65.68;;;35.47;;
15116;SDS011;7659;51.038;13.786;2024-03-07T02:25:04;72.07;;;36.72;;
15116;SDS011;7659;51.038;13.786;2024-03-07T02:27:29;68.45;;;36.38;;
15116;SDS011;7659;51.038;13.786;2024-03-07T02:29:55;61.40;;;34.85;;
15116;SDS011;7659;51.038;13.786;2024-03-07T02:32:20;62.17;;;35.20;;
15116;SDS011;7659;51.038;13.786;2024-03-07T02:34:46;59.72;;;35.33;;
15116;SDS011;7659;51.038;13.786;2024-03-07T02:37:12;63.13;;;35.67;;
15116;SDS011;7659;51.038;13.786;2024-03-07T02:39:38;59.05;;;34.70;;
15116;SDS011;7659;51.038;13.786;2024-03-07T02:42:03;65.95;;;35.90;;
15116;SDS011;7659;51.038;13.786;2024-03-07T02:44:29;61.08;;;35.38;;
15116;SDS011;7659;51.038;13.786;2024-03-07T02:46:57;63.22;;;35.35;;
15116;SDS011;7659;51.038;13.786;2024-03-07T02:49:23;62.40;;;37.47;;
15116;SDS011;7659;51.038;13.786;2024-03-07T02:51:48;64.20;;;36.65;;
15116;SDS011;7659;51.038;13.786;2024-03-07T02:54:14;62.20;;;35.33;;
15116;SDS011;7659;51.038;13.786;2024-03-07T02:56:39;58.63;;;35.38;;
15116;SDS011;7659;51.038;13.786;2024-03-07T02:59:05;61.88;;;37.03;;
15116;SDS011;7659;51.038;13.786;2024-03-07T03:01:31;69.80;;;36.95;;
15116;SDS011;7659;51.038;13.786;2024-03-07T03:03:57;67.03;;;35.30;;
15116;SDS011;7659;51.038;13.786;2024-03-07T03:06:22;61.45;;;35.47;;
15116;SDS011;7659;51.038;13.786;2024-03-07T03:08:48;69.47;;;37.35;;
15116;SDS011;7659;51.038;13.786;2024-03-07T03:11:13;66.60;;;38.38;;
15116;SDS011;7659;51.038;13.786;2024-03-07T03:13:39;62.53;;;36.75;;
15116;SDS011;7659;51.038;13.786;2024-03-07T03:16:05;67.82;;;37.17;;
15116;SDS011;7659;51.038;13.786;2024-03-07T03:18:32;62.45;;;37.00;;
15116;SDS011;7659;51.038;13.786;2024-03-07T03:21:02;70.28;;;39.28;;
15116;SDS011;7659;51.038;13.786;2024-03-07T03:23:31;62.40;;;36.17;;
15116;SDS011;7659;51.038;13.786;2024-03-07T03:25:56;71.25;;;37.38;;
15116;SDS011;7659;51.038;13.786;2024-03-07T03:28:22;70.57;;;37.65;;
15116;SDS011;7659;51.038;13.786;2024-03-07T03:30:48;67.50;;;37.60;;
15116;SDS011;7659;51.038;13.786;2024-03-07T03:33:14;65.72;;;37.55;;
15116;SDS011;7659;51.038;13.786;2024-03-07T03:35:40;68.40;;;39.10;;
15116;SDS011;7659;51.038;13.786;2024-03-07T03:38:06;65.07;;;37.60;;
15116;SDS011;7659;51.038;13.786;2024-03-07T03:40:32;61.13;;;36.40;;
15116;SDS011;7659;51.038;13.786;2024-03-07T03:42:57;61.72;;;35.72;;
15116;SDS011;7659;51.038;13.786;2024-03-07T03:45:22;57.42;;;34.53;;
15116;SDS011;7659;51.038;13.786;2024-03-07T03:47:50;63.65;;;36.53;;
15116;SDS011;7659;51.038;13.786;2024-03-07T03:50:16;63.17;;;35.53;;
15116;SDS011;7659;51.038;13.786;2024-03-07T03:52:43;63.20;;;35.50;;
15116;SDS011;7659;51.038;13.786;2024-03-07T03:55:09;64.30;;;36.10;;
15116;SDS011;7659;51.038;13.786;2024-03-07T03:57:35;60.92;;;35.03;;
15116;SDS011;7659;51.038;13.786;2024-03-07T04:00:01;61.83;;;35.75;;
15116;SDS011;7659;51.038;13.786;2024-03-07T04:02:33;62.92;;;35.08;;
15116;SDS011;7659;51.038;13.786;2024-03-07T04:04:58;61.53;;;33.90;;
15116;SDS011;7659;51.038;13.786;2024-03-07T04:07:25;60.67;;;34.95;;
15116;SDS011;7659;51.038;13.786;2024-03-07T04:09:50;58.38;;;34.67;;
15116;SDS011;7659;51.038;13.786;2024-03-07T04:12:15;58.85;;;34.15;;
15116;SDS011;7659;51.038;13.786;2024-03-07T04:14:41;62.53;;;35.53;;
15116;SDS011;7659;51.038;13.786;2024-03-07T04:17:07;63.55;;;35.90;;
15116;SDS011;7659;51.038;13.786;2024-03-07T04:19:36;59.42;;;35.00;;
15116;SDS011;7659;51.038;13.786;2024-03-07T04:22:01;58.35;;;35.20;;
15116;SDS011;7659;51.038;13.786;2024-03-07T04:24:29;57.40;;;34.72;;
15116;SDS011;7659;51.038;13.786;2024-03-07T04:26:54;61.35;;;35.78;;
15116;SDS011;7659;51.038;13.786;2024-03-07T04:29:20;58.05;;;35.30;;
15116;SDS011;7659;51.038;13.786;2024-03-07T04:31:45;58.10;;;36.00;;
15116;SDS011;7659;51.038;13.786;2024-03-07T04:34:11;60.58;;;36.00;;
15116;SDS011;7659;51.038;13.786;2024-03-07T04:36:36;63.17;;;36.67;;
15116;SDS011;7659;51.038;13.786;2024-03-07T04:39:02;62.80;;;38.13;;
15116;SDS011;7659;51.038;13.786;2024-03-07T04:41:29;66.68;;;38.00;;
15116;SDS011;7659;51.038;13.786;2024-03-07T04:43:55;65.65;;;36.25;;
15116;SDS011;7659;51.038;13.786;2024-03-07T04:46:20;62.42;;;36.40;;
15116;SDS011;7659;51.038;13.786;2024-03-07T04:48:45;61.60;;;37.53;;
15116;SDS011;7659;51.038;13.786;2024-03-07T04:51:11;61.33;;;36.53;;
15116;SDS011;7659;51.038;13.786;2024-03-07T04:53:36;57.10;;;36.67;;
15116;SDS011;7659;51.038;13.786;2024-03-07T04:56:07;56.10;;;36.03;;
15116;SDS011;7659;51.038;13.786;2024-03-07T04:58:35;64.07;;;38.95;;
15116;SDS011;7659;51.038;13.786;2024-03-07T05:01:02;58.25;;;35.88;;
15116;SDS011;7659;51.038;13.786;2024-03-07T05:03:29;54.22;;;34.97;;
15116;SDS011;7659;51.038;13.786;2024-03-07T05:05:55;59.00;;;34.60;;
15116;SDS011;7659;51.038;13.786;2024-03-07T05:08:20;53.65;;;31.42;;
15116;SDS011;7659;51.038;13.786;2024-03-07T05:10:47;54.80;;;31.13;;
15116;SDS011;7659;51.038;13.786;2024-03-07T05:13:12;52.58;;;31.77;;
15116;SDS011;7659;51.038;13.786;2024-03-07T05:15:37;51.55;;;30.38;;
15116;SDS011;7659;51.038;13.786;2024-03-07T05:18:03;49.92;;;31.17;;
15116;SDS011;7659;51.038;13.786;2024-03-07T05:20:29;49.00;;;30.20;;
15116;SDS011;7659;51.038;13.786;2024-03-07T05:22:55;51.38;;;30.23;;
15116;SDS011;7659;51.038;13.786;2024-03-07T05:25:21;46.67;;;30.25;;
15116;SDS011;7659;51.038;13.786;2024-03-07T05:27:47;47.78;;;30.27;;
15116;SDS011;7659;51.038;13.786;2024-03-07T05:30:16;48.33;;;30.88;;
15116;SDS011;7659;51.038;13.786;2024-03-07T05:32:42;44.92;;;29.15;;
15116;SDS011;7659;51.038;13.786;2024-03-07T05:35:07;51.92;;;32.25;;
15116;SDS011;7659;51.038;13.786;2024-03-07T05:37:33;49.10;;;30.15;;
15116;SDS011;7659;51.038;13.786;2024-03-07T05:39:58;50.78;;;29.33;;
15116;SDS011;7659;51.038;13.786;2024-03-07T05:42:24;47.28;;;30.38;;
15116;SDS011;7659;51.038;13.786;2024-03-07T05:44:51;52.67;;;33.72;;
15116;SDS011;7659;51.038;13.786;2024-03-07T05:47:16;49.13;;;30.35;;
15116;SDS011;7659;51.038;13.786;2024-03-07T05:49:42;52.08;;;31.75;;
15116;SDS011;7659;51.038;13.786;2024-03-07T05:52:08;54.63;;;33.13;;
15116;SDS011;7659;51.038;13.786;2024-03-07T05:54:34;48.83;;;31.35;;
15116;SDS011;7659;51.038;13.786;2024-03-07T05:57:00;49.35;;;30.70;;
15116;SDS011;7659;51.038;13.786;2024-03-07T05:59:25;48.22;;;31.70;;
15116;SDS011;7659;51.038;13.786;2024-03-07T06:01:50;47.33;;;30.95;;
15116;SDS011;7659;51.038;13.786;2024-03-07T06:04:16;54.85;;;32.38;;
15116;SDS011;7659;51.038;13.786;2024-03-07T06:06:41;54.67;;;33.15;;
15116;SDS011;7659;51.038;13.786;2024-03-07T06:09:08;50.55;;;32.25;;
15116;SDS011;7659;51.038;13.786;2024-03-07T06:11:34;54.30;;;33.60;;
15116;SDS011;7659;51.038;13.786;2024-03-07T06:13:59;52.63;;;32.03;;
15116;SDS011;7659;51.038;13.786;2024-03-07T06:16:24;52.03;;;32.40;;
15116;SDS011;7659;51.038;13.786;2024-03-07T06:18:50;55.53;;;32.25;;
15116;SDS011;7659;51.038;13.786;2024-03-07T06:21:17;51.03;;;31.55;;
15116;SDS011;7659;51.038;13.786;2024-03-07T06:23:44;52.05;;;32.08;;
15116;SDS011;7659;51.038;13.786;2024-03-07T06:26:12;51.25;;;30.60;;
15116;SDS011;7659;51.038;13.786;2024-03-07T06:28:38;52.75;;;30.83;;
15116;SDS011;7659;51.038;13.786;2024-03-07T06:31:04;49.15;;;30.85;;
15116;SDS011;7659;51.038;13.786;2024-03-07T06:33:33;52.75;;;32.13;;
15116;SDS011;7659;51.038;13.786;2024-03-07T06:35:59;53.22;;;33.10;;
15116;SDS011;7659;51.038;13.786;2024-03-07T06:38:26;49.58;;;31.48;;
15116;SDS011;7659;51.038;13.786;2024-03-07T06:40:51;51.90;;;32.63;;
15116;SDS011;7659;51.038;13.786;2024-03-07T06:43:18;57.13;;;32.95;;
15116;SDS011;7659;51.038;13.786;2024-03-07T06:45:43;54.50;;;32.60;;
15116;SDS011;7659;51.038;13.786;2024-03-07T06:48:11;52.63;;;30.92;;
15116;SDS011;7659;51.038;13.786;2024-03-07T06:50:38;47.40;;;31.10;;
15116;SDS011;7659;51.038;13.786;2024-03-07T06:53:04;48.75;;;30.33;;
15116;SDS011;7659;51.038;13.786;2024-03-07T06:55:32;50.10;;;31.58;;
15116;SDS011;7659;51.038;13.786;2024-03-07T06:57:59;49.35;;;31.50;;
15116;SDS011;7659;51.038;13.786;2024-03-07T07:00:25;47.60;;;30.35;;
15116;SDS011;7659;51.038;13.786;2024-03-07T07:02:51;45.00;;;29.63;;
15116;SDS011;7659;51.038;13.786;2024-03-07T07:05:19;47.83;;;29.55;;
15116;SDS011;7659;51.038;13.786;2024-03-07T07:07:45;50.63;;;30.42;;
15116;SDS011;7659;51.038;13.786;2024-03-07T07:10:11;45.17;;;29.65;;
15116;SDS011;7659;51.038;13.786;2024-03-07T07:12:49;44.35;;;28.45;;
15116;SDS011;7659;51.038;13.786;2024-03-07T07:15:16;46.47;;;28.30;;
15116;SDS011;7659;51.038;13.786;2024-03-07T07:17:43;43.85;;;29.40;;
15116;SDS011;7659;51.038;13.786;2024-03-07T07:20:10;45.03;;;28.63;;
15116;SDS011;7659;51.038;13.786;2024-03-07T07:22:36;46.40;;;28.88;;
15116;SDS011;7659;51.038;13.786;2024-03-07T07:25:02;47.88;;;27.83;;
15116;SDS011;7659;51.038;13.786;2024-03-07T07:27:30;44.42;;;26.17;;
15116;SDS011;7659;51.038;13.786;2024-03-07T07:29:55;49.13;;;27.25;;
15116;SDS011;7659;51.038;13.786;2024-03-07T07:32:21;40.35;;;25.52;;
15116;SDS011;7659;51.038;13.786;2024-03-07T07:34:48;40.85;;;26.20;;
15116;SDS011;7659;51.038;13.786;2024-03-07T07:37:13;40.55;;;25.13;;
15116;SDS011;7659;51.038;13.786;2024-03-07T07:39:39;39.65;;;23.05;;
15116;SDS011;7659;51.038;13.786;2024-03-07T07:42:04;37.97;;;23.02;;
15116;SDS011;7659;51.038;13.786;2024-03-07T07:44:30;40.22;;;23.25;;
15116;SDS011;7659;51.038;13.786;2024-03-07T07:46:55;39.00;;;22.73;;
15116;SDS011;7659;51.038;13.786;2024-03-07T07:49:21;35.65;;;21.25;;
15116;SDS011;7659;51.038;13.786;2024-03-07T07:51:46;39.90;;;22.33;;
15116;SDS011;7659;51.038;13.786;2024-03-07T07:54:14;36.33;;;21.48;;
15116;SDS011;7659;51.038;13.786;2024-03-07T07:56:39;36.97;;;22.27;;
15116;SDS011;7659;51.038;13.786;2024-03-07T07:59:05;32.40;;;21.20;;
15116;SDS011;7659;51.038;13.786;2024-03-07T08:01:32;39.50;;;21.27;;
15116;SDS011;7659;51.038;13.786;2024-03-07T08:03:59;34.92;;;20.30;;
15116;SDS011;7659;51.038;13.786;2024-03-07T08:06:24;32.30;;;19.65;;
15116;SDS011;7659;51.038;13.786;2024-03-07T08:08:50;31.83;;;21.20;;
15116;SDS011;7659;51.038;13.786;2024-03-07T08:11:15;36.10;;;20.27;;
15116;SDS011;7659;51.038;13.786;2024-03-07T08:13:40;31.98;;;20.00;;
15116;SDS011;7659;51.038;13.786;2024-03-07T08:16:06;32.85;;;20.63;;
15116;SDS011;7659;51.038;13.786;2024-03-07T08:18:32;32.00;;;19.15;;
15116;SDS011;7659;51.038;13.786;2024-03-07T08:20:57;29.10;;;19.00;;
15116;SDS011;7659;51.038;13.786;2024-03-07T08:23:23;30.48;;;18.95;;
15116;SDS011;7659;51.038;13.786;2024-03-07T08:25:51;29.85;;;19.25;;
15116;SDS011;7659;51.038;13.786;2024-03-07T08:28:17;36.63;;;19.58;;
15116;SDS011;7659;51.038;13.786;2024-03-07T08:30:42;33.55;;;17.83;;
15116;SDS011;7659;51.038;13.786;2024-03-07T08:33:08;30.10;;;18.17;;
15116;SDS011;7659;51.038;13.786;2024-03-07T08:35:33;30.67;;;17.58;;
15116;SDS011;7659;51.038;13.786;2024-03-07T08:37:58;27.17;;;18.05;;
15116;SDS011;7659;51.038;13.786;2024-03-07T08:40:25;28.45;;;17.00;;
15116;SDS011;7659;51.038;13.786;2024-03-07T08:42:51;24.88;;;15.75;;
15116;SDS011;7659;51.038;13.786;2024-03-07T08:45:16;27.67;;;17.55;;
15116;SDS011;7659;51.038;13.786;2024-03-07T08:47:44;26.42;;;17.02;;
15116;SDS011;7659;51.038;13.786;2024-03-07T08:50:10;30.55;;;17.77;;
15116;SDS011;7659;51.038;13.786;2024-03-07T08:52:35;29.70;;;18.20;;
15116;SDS011;7659;51.038;13.786;2024-03-07T08:55:05;27.92;;;16.98;;
15116;SDS011;7659;51.038;13.786;2024-03-07T08:57:31;23.67;;;15.30;;
15116;SDS011;7659;51.038;13.786;2024-03-07T08:59:56;27.40;;;16.88;;
15116;SDS011;7659;51.038;13.786;2024-03-07T09:02:22;25.58;;;15.95;;
15116;SDS011;7659;51.038;13.786;2024-03-07T09:04:47;27.90;;;16.23;;
15116;SDS011;7659;51.038;13.786;2024-03-07T09:07:13;23.85;;;14.15;;
15116;SDS011;7659;51.038;13.786;2024-03-07T09:09:42;24.73;;;12.90;;
15116;SDS011;7659;51.038;13.786;2024-03-07T09:12:11;21.17;;;11.88;;
15116;SDS011;7659;51.038;13.786;2024-03-07T09:14:37;26.25;;;12.75;;
15116;SDS011;7659;51.038;13.786;2024-03-07T09:17:02;21.52;;;11.75;;
15116;SDS011;7659;51.038;13.786;2024-03-07T09:19:30;22.15;;;11.98;;
15116;SDS011;7659;51.038;13.786;2024-03-07T09:21:55;18.52;;;11.98;;
15116;SDS011;7659;51.038;13.786;2024-03-07T09:24:21;18.08;;;11.52;;
15116;SDS011;7659;51.038;13.786;2024-03-07T09:26:47;20.45;;;12.57;;
15116;SDS011;7659;51.038;13.786;2024-03-07T09:29:14;18.95;;;12.73;;
15116;SDS011;7659;51.038;13.786;2024-03-07T09:31:39;23.35;;;14.15;;
15116;SDS011;7659;51.038;13.786;2024-03-07T09:34:05;22.23;;;13.40;;
15116;SDS011;7659;51.038;13.786;2024-03-07T09:36:31;17.80;;;12.68;;
15116;SDS011;7659;51.038;13.786;2024-03-07T09:38:56;21.27;;;12.95;;
15116;SDS011;7659;51.038;13.786;2024-03-07T09:41:23;19.27;;;12.77;;
15116;SDS011;7659;51.038;13.786;2024-03-07T09:43:53;22.38;;;13.30;;
15116;SDS011;7659;51.038;13.786;2024-03-07T09:46:23;22.90;;;13.35;;
15116;SDS011;7659;51.038;13.786;2024-03-07T09:48:49;25.33;;;14.35;;
15116;SDS011;7659;51.038;13.786;2024-03-07T09:51:21;19.52;;;12.35;;
15116;SDS011;7659;51.038;13.786;2024-03-07T09:53:50;20.38;;;13.73;;
15116;SDS011;7659;51.038;13.786;2024-03-07T09:56:17;20.70;;;13.88;;
15116;SDS011;7659;51.038;13.786;2024-03-07T09:58:42;23.70;;;14.55;;
15116;SDS011;7659;51.038;13.786;2024-03-07T10:01:08;26.63;;;15.88;;
15116;SDS011;7659;51.038;13.786;2024-03-07T10:03:37;22.50;;;15.23;;
15116;SDS011;7659;51.038;13.786;2024-03-07T10:06:03;23.33;;;15.60;;
15116;SDS011;7659;51.038;13.786;2024-03-07T10:08:29;24.92;;;15.50;;
15116;SDS011;7659;51.038;13.786;2024-03-07T10:10:56;21.52;;;15.45;;
15116;SDS011;7659;51.038;13.786;2024-03-07T10:13:22;21.15;;;14.63;;
15116;SDS011;7659;51.038;13.786;2024-03-07T10:15:47;22.30;;;15.43;;
15116;SDS011;7659;51.038;13.786;2024-03-07T10:18:14;21.73;;;14.63;;
15116;SDS011;7659;51.038;13.786;2024-03-07T10:20:39;26.35;;;15.82;;
15116;SDS011;7659;51.038;13.786;2024-03-07T10:23:07;22.40;;;15.07;;
15116;SDS011;7659;51.038;13.786;2024-03-07T10:25:33;21.98;;;15.15;;
15116;SDS011;7659;51.038;13.786;2024-03-07T10:27:58;23.75;;;16.33;;
15116;SDS011;7659;51.038;13.786;2024-03-07T10:30:25;21.90;;;15.52;;
15116;SDS011;7659;51.038;13.786;2024-03-07T10:32:57;25.63;;;16.60;;
15116;SDS011;7659;51.038;13.786;2024-03-07T10:35:23;23.90;;;16.42;;
15116;SDS011;7659;51.038;13.786;2024-03-07T10:37:50;24.70;;;16.63;;
15116;SDS011;7659;51.038;13.786;2024-03-07T10:40:15;22.13;;;16.15;;
15116;SDS011;7659;51.038;13.786;2024-03-07T10:42:46;24.02;;;16.77;;
15116;SDS011;7659;51.038;13.786;2024-03-07T10:45:20;27.02;;;17.55;;
15116;SDS011;7659;51.038;13.786;2024-03-07T10:47:52;27.65;;;17.50;;
15116;SDS011;7659;51.038;13.786;2024-03-07T10:52:48;28.17;;;18.98;;
15116;SDS011;7659;51.038;13.786;2024-03-07T10:55:17;25.55;;;17.75;;
15116;SDS011;7659;51.038;13.786;2024-03-07T10:57:51;26.63;;;18.92;;
15116;SDS011;7659;51.038;13.786;2024-03-07T11:00:19;26.63;;;18.63;;
15116;SDS011;7659;51.038;13.786;2024-03-07T11:02:55;31.10;;;19.10;;
15116;SDS011;7659;51.038;13.786;2024-03-07T11:05:21;25.73;;;17.35;;
15116;SDS011;7659;51.038;13.786;2024-03-07T11:07:49;26.90;;;18.63;;
15116;SDS011;7659;51.038;13.786;2024-03-07T11:10:15;25.60;;;18.33;;
15116;SDS011;7659;51.038;13.786;2024-03-07T11:12:42;26.05;;;17.67;;
15116;SDS011;7659;51.038;13.786;2024-03-07T11:15:09;32.75;;;20.98;;
15116;SDS011;7659;51.038;13.786;2024-03-07T11:17:49;30.90;;;19.25;;
15116;SDS011;7659;51.038;13.786;2024-03-07T11:22:46;28.15;;;19.17;;
15116;SDS011;7659;51.038;13.786;2024-03-07T11:25:11;26.75;;;17.83;;
15116;SDS011;7659;51.038;13.786;2024-03-07T11:27:37;33.28;;;18.63;;
15116;SDS011;7659;51.038;13.786;2024-03-07T11:30:04;28.85;;;18.67;;
15116;SDS011;7659;51.038;13.786;2024-03-07T11:32:34;29.90;;;18.55;;
15116;SDS011;7659;51.038;13.786;2024-03-07T11:34:59;27.05;;;17.70;;
15116;SDS011;7659;51.038;13.786;2024-03-07T11:37:42;26.15;;;17.65;;
15116;SDS011;7659;51.038;13.786;2024-03-07T11:40:42;26.85;;;17.88;;
15116;SDS011;7659;51.038;13.786;2024-03-07T11:43:00;30.55;;;19.25;;
15116;SDS011;7659;51.038;13.786;2024-03-07T11:45:25;29.13;;;17.45;;
15116;SDS011;7659;51.038;13.786;2024-03-07T11:50:23;28.23;;;17.52;;
15116;SDS011;7659;51.038;13.786;2024-03-07T11:52:51;31.30;;;18.25;;
15116;SDS011;7659;51.038;13.786;2024-03-07T11:55:18;28.52;;;17.55;;
15116;SDS011;7659;51.038;13.786;2024-03-07T11:57:44;28.48;;;17.17;;
15116;SDS011;7659;51.038;13.786;2024-03-07T12:00:11;28.58;;;18.35;;
15116;SDS011;7659;51.038;13.786;2024-03-07T12:02:39;31.65;;;18.92;;
15116;SDS011;7659;51.038;13.786;2024-03-07T12:05:05;30.95;;;19.02;;
15116;SDS011;7659;51.038;13.786;2024-03-07T12:07:31;28.35;;;18.98;;
15116;SDS011;7659;51.038;13.786;2024-03-07T12:09:56;32.67;;;19.88;;
15116;SDS011;7659;51.038;13.786;2024-03-07T12:12:22;28.23;;;18.60;;
15116;SDS011;7659;51.038;13.786;2024-03-07T12:14:48;34.33;;;18.65;;
15116;SDS011;7659;51.038;13.786;2024-03-07T12:17:16;27.58;;;18.70;;
15116;SDS011;7659;51.038;13.786;2024-03-07T12:19:42;29.70;;;18.60;;
15116;SDS011;7659;51.038;13.786;2024-03-07T12:22:08;31.25;;;18.52;;
15116;SDS011;7659;51.038;13.786;2024-03-07T12:24:40;25.45;;;17.08;;
15116;SDS011;7659;51.038;13.786;2024-03-07T12:27:09;28.98;;;18.65;;
15116;SDS011;7659;51.038;13.786;2024-03-07T12:29:35;28.77;;;18.13;;
15116;SDS011;7659;51.038;13.786;2024-03-07T12:32:01;26.67;;;18.05;;
15116;SDS011;7659;51.038;13.786;2024-03-07T12:34:26;28.88;;;18.58;;
15116;SDS011;7659;51.038;13.786;2024-03-07T12:36:53;28.05;;;18.33;;
15116;SDS011;7659;51.038;13.786;2024-03-07T12:39:24;26.58;;;17.65;;
15116;SDS011;7659;51.038;13.786;2024-03-07T12:41:50;26.60;;;17.30;;
15116;SDS011;7659;51.038;13.786;2024-03-07T12:44:19;26.88;;;16.23;;
15116;SDS011;7659;51.038;13.786;2024-03-07T12:46:48;25.35;;;17.20;;
15116;SDS011;7659;51.038;13.786;2024-03-07T12:49:16;29.33;;;16.35;;
15116;SDS011;7659;51.038;13.786;2024-03-07T12:51:42;22.55;;;15.55;;
15116;SDS011;7659;51.038;13.786;2024-03-07T12:54:07;25.65;;;16.25;;
15116;SDS011;7659;51.038;13.786;2024-03-07T12:56:35;26.00;;;16.08;;
15116;SDS011;7659;51.038;13.786;2024-03-07T12:59:05;27.10;;;15.20;;
15116;SDS011;7659;51.038;13.786;2024-03-07T13:01:34;25.40;;;15.45;;
15116;SDS011;7659;51.038;13.786;2024-03-07T13:04:02;26.80;;;16.50;;
15116;SDS011;7659;51.038;13.786;2024-03-07T13:06:29;25.38;;;15.98;;
15116;SDS011;7659;51.038;13.786;2024-03-07T13:08:55;25.48;;;15.65;;
15116;SDS011;7659;51.038;13.786;2024-03-07T13:11:23;24.13;;;15.20;;
15116;SDS011;7659;51.038;13.786;2024-03-07T13:13:52;24.00;;;15.38;;
15116;SDS011;7659;51.038;13.786;2024-03-07T13:16:17;24.42;;;15.35;;
15116;SDS011;7659;51.038;13.786;2024-03-07T13:18:43;32.15;;;20.58;;
15116;SDS011;7659;51.038;13.786;2024-03-07T13:21:08;24.63;;;14.88;;
15116;SDS011;7659;51.038;13.786;2024-03-07T13:23:35;21.38;;;14.15;;
15116;SDS011;7659;51.038;13.786;2024-03-07T13:26:04;21.33;;;14.38;;
15116;SDS011;7659;51.038;13.786;2024-03-07T13:28:33;20.10;;;14.05;;
15116;SDS011;7659;51.038;13.786;2024-03-07T13:30:59;22.02;;;14.00;;
15116;SDS011;7659;51.038;13.786;2024-03-07T13:33:24;21.15;;;13.50;;
15116;SDS011;7659;51.038;13.786;2024-03-07T13:35:50;19.25;;;12.80;;
15116;SDS011;7659;51.038;13.786;2024-03-07T13:38:17;20.55;;;13.18;;
15116;SDS011;7659;51.038;13.786;2024-03-07T13:40:43;19.17;;;12.18;;
15116;SDS011;7659;51.038;13.786;2024-03-07T13:43:09;19.85;;;13.02;;
15116;SDS011;7659;51.038;13.786;2024-03-07T13:45:35;18.27;;;12.43;;
15116;SDS011;7659;51.038;13.786;2024-03-07T13:48:04;18.80;;;12.60;;
15116;SDS011;7659;51.038;13.786;2024-03-07T13:50:30;20.25;;;13.25;;
15116;SDS011;7659;51.038;13.786;2024-03-07T13:52:56;22.92;;;12.50;;
15116;SDS011;7659;51.038;13.786;2024-03-07T14:03:51;17.98;;;12.30;;
15116;SDS011;7659;51.038;13.786;2024-03-07T14:06:38;19.02;;;12.00;;
15116;SDS011;7659;51.038;13.786;2024-03-07T14:09:14;19.80;;;13.15;;
15116;SDS011;7659;51.038;13.786;2024-03-07T14:12:04;18.08;;;12.77;;
15116;SDS011;7659;51.038;13.786;2024-03-07T14:14:52;25.05;;;13.00;;
15116;SDS011;7659;51.038;13.786;2024-03-07T14:25:44;22.35;;;13.55;;
15116;SDS011;7659;51.038;13.786;2024-03-07T14:28:14;20.90;;;13.25;;
15116;SDS011;7659;51.038;13.786;2024-03-07T14:30:50;20.77;;;13.05;;
15116;SDS011;7659;51.038;13.786;2024-03-07T14:33:20;21.50;;;13.57;;
15116;SDS011;7659;51.038;13.786;2024-03-07T14:36:05;22.55;;;13.15;;
15116;SDS011;7659;51.038;13.786;2024-03-07T14:38:43;22.98;;;14.15;;
15116;SDS011;7659;51.038;13.786;2024-03-07T14:41:11;22.88;;;13.95;;
15116;SDS011;7659;51.038;13.786;2024-03-07T14:43:38;22.05;;;14.45;;